Pudoz, Russia
Current Conditions -  °F | °C
As of 7:30 AM on Monday 26 Jan 2015 (Local Time) from ULWC Reporting Station
Overcast Overcast  
Wind Chill:   Ceiling: 900
Heat Index: 10°   Visibility: 6mi
Dew Point:   Wind: 7mph
Humidity: 85%   Direction: 220°SW
Pressure: 30.18"   Gusts: 13mph
Location:  61.8°N, 36.52°E
Report Text: ULWC 260430Z 22003G06MPS 9999 BKN009 OVC/// M12/M14 Q1022 NOSIGRMK QBB280 QFE757/1009 SC042
Loading
Personal Weather Stations






























Interactive Weather Map New forecast layout! Learn more

10-Day Weather Forecast

Advertisements
Track Severe Weather on mobile